createdAt,value
2019-01-27T00:02:05.980Z,90.65
2019-01-27T00:04:32.289Z,90.71
2019-01-27T00:06:58.604Z,90.25
2019-01-27T00:09:24.912Z,90.17
2019-01-27T00:11:51.222Z,90.38
2019-01-27T00:14:17.532Z,90.03
2019-01-27T00:16:43.837Z,90.24
2019-01-27T00:19:10.140Z,90.11
2019-01-27T00:21:36.452Z,89.95
2019-01-27T00:24:02.760Z,90.05
2019-01-27T00:26:29.068Z,90.02
2019-01-27T00:28:55.373Z,90.03
2019-01-27T00:31:21.714Z,90.14
2019-01-27T00:33:48.022Z,90.05
2019-01-27T00:36:14.337Z,90.27
2019-01-27T00:38:40.629Z,90.39
2019-01-27T00:41:06.937Z,90.38
2019-01-27T00:43:33.240Z,90.50
2019-01-27T00:45:59.549Z,90.35
2019-01-27T00:48:25.853Z,90.04
2019-01-27T00:50:52.159Z,90.17
2019-01-27T00:53:18.470Z,89.83
2019-01-27T00:55:44.780Z,89.60
2019-01-27T00:58:11.090Z,89.44
2019-01-27T01:00:37.404Z,89.13
2019-01-27T01:03:03.712Z,89.26
2019-01-27T01:05:30.024Z,89.02
2019-01-27T01:07:56.327Z,89.28
2019-01-27T01:10:22.641Z,88.95
2019-01-27T01:12:48.940Z,89.04
2019-01-27T01:15:15.253Z,88.79
2019-01-27T01:17:41.556Z,88.36
2019-01-27T01:20:07.879Z,88.58
2019-01-27T01:22:34.179Z,88.73
2019-01-27T01:25:00.489Z,88.85
2019-01-27T01:27:26.792Z,88.74
2019-01-27T01:29:53.108Z,88.54
2019-01-27T01:32:19.447Z,88.60
2019-01-27T01:34:45.717Z,88.49
2019-01-27T01:37:12.027Z,88.00
2019-01-27T01:39:38.336Z,87.29
2019-01-27T01:42:04.642Z,87.18
2019-01-27T01:44:30.952Z,87.19
2019-01-27T01:46:57.264Z,87.12
2019-01-27T01:49:23.575Z,87.25
2019-01-27T01:51:49.886Z,87.23
2019-01-27T01:54:16.197Z,86.93
2019-01-27T01:56:42.509Z,87.17
2019-01-27T01:59:08.816Z,86.93
2019-01-27T02:01:35.124Z,87.04
2019-01-27T02:04:01.482Z,86.67
2019-01-27T02:06:27.785Z,86.50
2019-01-27T02:08:54.091Z,86.62
2019-01-27T02:11:20.401Z,86.61
2019-01-27T02:13:46.708Z,86.91
2019-01-27T02:16:13.029Z,86.90
2019-01-27T02:18:39.328Z,86.67
2019-01-27T02:21:05.638Z,86.27
2019-01-27T02:23:31.943Z,86.22
2019-01-27T02:25:58.248Z,86.15
2019-01-27T02:28:24.553Z,86.19
2019-01-27T02:30:50.858Z,85.95
2019-01-27T02:33:17.177Z,85.20
2019-01-27T02:35:43.496Z,85.56
2019-01-27T02:38:09.797Z,85.06
2019-01-27T02:40:36.100Z,84.34
2019-01-27T02:43:02.422Z,84.54
2019-01-27T02:45:28.728Z,84.85
2019-01-27T02:47:55.040Z,85.30
2019-01-27T02:50:21.346Z,85.13
2019-01-27T02:52:47.652Z,84.93
2019-01-27T02:55:13.964Z,85.16
2019-01-27T02:57:40.271Z,85.30
2019-01-27T03:00:06.583Z,85.08
2019-01-27T03:02:32.883Z,85.42
2019-01-27T03:04:59.191Z,85.24
2019-01-27T03:07:25.495Z,85.24
2019-01-27T03:09:51.808Z,85.35
2019-01-27T03:12:18.118Z,85.08
2019-01-27T03:14:44.424Z,85.35
2019-01-27T03:17:10.732Z,85.43
2019-01-27T03:19:37.040Z,85.60
2019-01-27T03:22:03.348Z,86.00
2019-01-27T03:24:29.658Z,85.82
2019-01-27T03:26:55.966Z,85.82
2019-01-27T03:29:22.275Z,86.00
2019-01-27T03:31:48.610Z,86.28
2019-01-27T03:34:14.915Z,86.32
2019-01-27T03:36:41.219Z,86.13
2019-01-27T03:39:07.523Z,86.51
2019-01-27T03:41:33.828Z,86.53
2019-01-27T03:44:00.133Z,86.55
2019-01-27T03:46:26.444Z,86.44
2019-01-27T03:48:52.743Z,86.54
2019-01-27T03:51:19.050Z,86.82
2019-01-27T03:53:45.358Z,86.67
2019-01-27T03:56:11.668Z,86.71
2019-01-27T03:58:37.975Z,87.13
2019-01-27T04:01:04.281Z,87.41
2019-01-27T04:03:30.596Z,86.79
2019-01-27T04:05:56.901Z,86.73
2019-01-27T04:08:23.206Z,86.86
2019-01-27T04:10:49.512Z,87.16
2019-01-27T04:13:15.819Z,86.90
2019-01-27T04:15:42.132Z,87.11
2019-01-27T04:18:08.437Z,87.09
2019-01-27T04:20:34.742Z,87.51
2019-01-27T04:23:01.052Z,87.33
2019-01-27T04:25:27.363Z,87.82
2019-01-27T04:27:53.676Z,87.60
2019-01-27T04:30:20.002Z,87.78
2019-01-27T04:32:46.310Z,87.80
2019-01-27T04:35:12.615Z,87.71
2019-01-27T04:37:38.923Z,87.58
2019-01-27T04:40:05.223Z,87.66
2019-01-27T04:42:31.539Z,87.58
2019-01-27T04:44:57.844Z,87.64
2019-01-27T04:47:24.160Z,88.11
2019-01-27T04:49:50.467Z,87.75
2019-01-27T04:52:16.779Z,88.19
2019-01-27T04:54:43.106Z,87.72
2019-01-27T04:57:09.418Z,87.83
2019-01-27T04:59:35.734Z,87.54
2019-01-27T05:02:02.047Z,87.49
2019-01-27T05:04:28.358Z,87.57
2019-01-27T05:06:54.663Z,87.72
2019-01-27T05:09:20.975Z,87.58
2019-01-27T05:11:47.288Z,87.88
2019-01-27T05:14:13.598Z,87.95
2019-01-27T05:16:39.904Z,87.97
2019-01-27T05:19:06.224Z,88.01
2019-01-27T05:21:34.361Z,87.87
2019-01-27T05:23:58.926Z,87.74
2019-01-27T05:26:25.211Z,87.58
2019-01-27T05:28:51.520Z,87.75
2019-01-27T05:31:17.829Z,88.26
2019-01-27T05:33:44.148Z,88.57
2019-01-27T05:36:10.452Z,87.91
2019-01-27T05:38:36.762Z,87.85
2019-01-27T05:41:03.068Z,88.20
2019-01-27T05:43:29.380Z,87.91
2019-01-27T05:45:55.689Z,87.90
2019-01-27T05:48:21.997Z,87.82
2019-01-27T05:50:48.303Z,87.35
2019-01-27T05:53:14.650Z,87.82
2019-01-27T05:55:40.956Z,87.92
2019-01-27T05:58:07.269Z,88.03
2019-01-27T06:00:33.626Z,87.96
2019-01-27T06:02:59.881Z,87.65
2019-01-27T06:05:26.184Z,87.83
2019-01-27T06:07:52.490Z,88.02
2019-01-27T06:10:18.799Z,87.98
2019-01-27T06:12:45.116Z,87.93
2019-01-27T06:15:11.489Z,87.93
2019-01-27T06:17:37.790Z,87.85
2019-01-27T06:20:04.132Z,87.72
2019-01-27T06:22:30.440Z,87.76
2019-01-27T06:24:56.754Z,87.65
2019-01-27T06:27:23.097Z,87.42
2019-01-27T06:29:49.407Z,87.40
2019-01-27T06:32:15.723Z,87.03
2019-01-27T06:34:42.024Z,86.82
2019-01-27T06:37:08.337Z,86.58
2019-01-27T06:39:34.659Z,86.48
2019-01-27T06:42:00.955Z,85.94
2019-01-27T06:44:27.262Z,85.34
2019-01-27T06:46:53.593Z,85.77
2019-01-27T06:49:19.901Z,86.11
2019-01-27T06:51:46.203Z,85.45
2019-01-27T06:54:12.536Z,85.39
2019-01-27T06:56:38.840Z,84.82
2019-01-27T06:59:05.153Z,84.92
2019-01-27T07:01:31.466Z,84.46
2019-01-27T07:03:57.775Z,84.29
2019-01-27T07:06:24.081Z,83.77
2019-01-27T07:08:50.387Z,83.33
2019-01-27T07:11:16.692Z,83.56
2019-01-27T07:13:43.019Z,83.57
2019-01-27T07:16:09.324Z,83.31
2019-01-27T07:18:35.637Z,82.77
2019-01-27T07:21:01.946Z,82.92
2019-01-27T07:23:28.281Z,82.91
2019-01-27T07:25:54.571Z,82.83
2019-01-27T07:28:20.894Z,83.13
2019-01-27T07:30:47.203Z,82.64
2019-01-27T07:33:13.515Z,82.17
2019-01-27T07:35:39.825Z,82.13
2019-01-27T07:38:06.137Z,81.63
2019-01-27T07:40:32.448Z,80.31
2019-01-27T07:42:58.758Z,79.34
2019-01-27T07:45:25.074Z,78.66
2019-01-27T07:47:51.383Z,77.62
2019-01-27T07:50:17.695Z,76.43
2019-01-27T07:52:44.053Z,75.87
2019-01-27T07:55:10.362Z,74.08
2019-01-27T07:57:36.663Z,74.00
2019-01-27T08:00:02.986Z,73.00
2019-01-27T08:02:29.292Z,72.54
2019-01-27T08:04:55.610Z,70.82
2019-01-27T08:07:21.909Z,70.69
2019-01-27T08:09:49.591Z,68.79
2019-01-27T08:12:15.898Z,66.82
2019-01-27T08:14:42.214Z,67.75
2019-01-27T08:17:08.525Z,66.48
2019-01-27T08:19:34.832Z,65.39
2019-01-27T08:22:01.150Z,67.61
2019-01-27T08:24:27.459Z,68.79
2019-01-27T08:26:53.769Z,64.85
2019-01-27T08:29:20.076Z,64.21
2019-01-27T08:31:46.384Z,65.73
2019-01-27T08:34:12.691Z,66.12
2019-01-27T08:36:38.995Z,66.06
2019-01-27T08:39:05.305Z,65.13
2019-01-27T08:41:31.620Z,64.17
2019-01-27T08:43:57.923Z,63.98
2019-01-27T08:46:24.231Z,61.29
2019-01-27T08:48:50.539Z,63.35
2019-01-27T08:51:16.849Z,63.16
2019-01-27T08:53:43.156Z,61.72
2019-01-27T08:56:09.459Z,61.94
2019-01-27T08:58:35.763Z,62.81
2019-01-27T09:01:02.073Z,61.36
2019-01-27T09:03:28.379Z,61.98
2019-01-27T09:05:54.698Z,62.22
2019-01-27T09:08:21.015Z,62.17
2019-01-27T09:10:47.329Z,59.79
2019-01-27T09:13:13.634Z,60.46
2019-01-27T09:15:39.944Z,58.65
2019-01-27T09:18:06.256Z,57.86
2019-01-27T09:20:32.557Z,58.40
2019-01-27T09:22:58.872Z,57.38
2019-01-27T09:25:25.182Z,63.67
2019-01-27T09:27:51.489Z,62.89
2019-01-27T09:30:17.809Z,65.40
2019-01-27T09:32:44.105Z,66.65
2019-01-27T09:35:10.419Z,65.59
2019-01-27T09:37:36.749Z,68.39
2019-01-27T09:40:03.058Z,70.88
2019-01-27T09:42:29.365Z,68.66
2019-01-27T09:44:55.670Z,72.61
2019-01-27T09:47:21.989Z,74.45
2019-01-27T09:49:48.315Z,82.75
2019-01-27T09:52:14.622Z,92.73
2019-01-27T09:54:40.972Z,91.94
2019-01-27T09:57:07.280Z,95.47
2019-01-27T09:59:33.588Z,95.44
2019-01-27T10:01:59.909Z,97.22
2019-01-27T10:04:26.215Z,95.45
2019-01-27T10:06:52.521Z,96.88
2019-01-27T10:09:18.830Z,98.28
2019-01-27T10:11:45.141Z,99.97
2019-01-27T10:14:11.455Z,100.00
2019-01-27T10:16:37.770Z,100.00
2019-01-27T10:19:04.078Z,97.77
2019-01-27T10:21:30.392Z,100.00
2019-01-27T10:23:56.702Z,100.00
2019-01-27T10:26:23.009Z,100.00
2019-01-27T10:28:49.318Z,99.78
2019-01-27T10:31:15.630Z,100.00
2019-01-27T10:33:41.956Z,100.00
2019-01-27T10:36:08.265Z,100.00
2019-01-27T10:38:34.575Z,100.00
2019-01-27T10:41:00.920Z,100.00
2019-01-27T10:43:27.225Z,100.00
2019-01-27T10:45:53.532Z,99.61
2019-01-27T10:48:19.848Z,99.54
2019-01-27T10:50:46.161Z,97.05
2019-01-27T10:53:12.472Z,97.47
2019-01-27T10:55:38.801Z,97.08
2019-01-27T10:58:05.133Z,95.43
2019-01-27T11:00:31.447Z,96.03
2019-01-27T11:02:57.762Z,95.89
2019-01-27T11:05:24.109Z,94.45
2019-01-27T11:07:50.432Z,96.85
2019-01-27T11:10:16.763Z,96.53
2019-01-27T11:12:43.070Z,89.07
2019-01-27T11:15:09.393Z,94.45
2019-01-27T11:17:35.703Z,89.97
2019-01-27T11:20:04.206Z,88.42
2019-01-27T11:22:28.380Z,85.19
2019-01-27T11:24:54.774Z,81.34
2019-01-27T11:27:21.083Z,73.18
2019-01-27T11:29:47.508Z,69.41
2019-01-27T11:32:13.789Z,69.99
2019-01-27T11:34:40.101Z,73.31
2019-01-27T11:37:06.404Z,75.45
2019-01-27T11:39:32.718Z,76.45
2019-01-27T11:41:59.024Z,70.85
2019-01-27T11:44:25.360Z,65.78
2019-01-27T11:46:51.664Z,69.16
2019-01-27T11:49:17.973Z,64.04
2019-01-27T11:51:44.296Z,65.57
2019-01-27T11:54:10.612Z,58.77
2019-01-27T11:56:36.929Z,60.42
2019-01-27T11:59:03.253Z,59.43
2019-01-27T12:01:31.811Z,62.78
2019-01-27T12:03:58.133Z,62.83
2019-01-27T12:06:24.749Z,59.57
2019-01-27T12:08:51.066Z,56.60
2019-01-27T12:11:17.373Z,59.71
2019-01-27T12:13:43.691Z,59.03
2019-01-27T12:16:09.991Z,57.70
2019-01-27T12:18:36.338Z,58.15
2019-01-27T12:21:02.656Z,52.65
2019-01-27T12:23:28.963Z,55.53
2019-01-27T12:25:55.271Z,54.72
2019-01-27T12:28:21.579Z,53.81
2019-01-27T12:30:47.888Z,55.34
2019-01-27T12:33:14.201Z,52.99
2019-01-27T12:35:40.520Z,52.47
2019-01-27T12:38:06.833Z,53.26
2019-01-27T12:40:33.145Z,55.04
2019-01-27T12:42:59.456Z,55.23
2019-01-27T12:45:25.763Z,54.84
2019-01-27T12:47:52.074Z,50.54
2019-01-27T12:50:18.381Z,51.21
2019-01-27T12:52:44.691Z,50.75
2019-01-27T12:55:11.001Z,52.49
2019-01-27T12:57:37.308Z,50.95
2019-01-27T13:00:03.655Z,48.97
2019-01-27T13:02:29.961Z,50.55
2019-01-27T13:04:56.268Z,50.26
2019-01-27T13:07:22.577Z,49.36
2019-01-27T13:09:48.884Z,50.81
2019-01-27T13:12:15.193Z,50.42
2019-01-27T13:14:41.513Z,50.50
2019-01-27T13:17:07.817Z,49.57
2019-01-27T13:19:34.150Z,49.41
2019-01-27T13:22:00.475Z,48.39
2019-01-27T13:24:26.813Z,49.22
2019-01-27T13:26:53.155Z,50.30
2019-01-27T13:29:19.446Z,49.91
2019-01-27T13:31:45.745Z,49.38
2019-01-27T13:34:12.079Z,49.13
2019-01-27T13:36:38.385Z,47.37
2019-01-27T13:39:04.688Z,49.78
2019-01-27T13:41:30.999Z,50.45
2019-01-27T13:43:57.299Z,48.70
2019-01-27T13:46:23.628Z,50.38
2019-01-27T13:48:49.941Z,50.93
2019-01-27T13:51:16.239Z,50.42
2019-01-27T13:53:42.548Z,49.90
2019-01-27T13:56:08.853Z,50.62
2019-01-27T13:58:35.163Z,51.38
2019-01-27T14:01:01.492Z,53.13
2019-01-27T14:03:27.806Z,53.65
2019-01-27T14:05:54.113Z,54.86
2019-01-27T14:08:20.879Z,55.51
2019-01-27T14:10:47.188Z,55.76
2019-01-27T14:13:15.838Z,56.74
2019-01-27T14:15:42.375Z,57.54
2019-01-27T14:18:08.739Z,59.17
2019-01-27T14:20:35.300Z,60.61
2019-01-27T14:23:01.587Z,62.15
2019-01-27T14:25:27.902Z,63.63
2019-01-27T14:27:54.209Z,64.42
2019-01-27T14:30:20.533Z,64.30
2019-01-27T14:32:46.839Z,65.72
2019-01-27T14:35:13.153Z,66.51
2019-01-27T14:37:39.457Z,67.38
2019-01-27T14:40:05.764Z,67.88
2019-01-27T14:42:32.072Z,68.65
2019-01-27T14:44:58.379Z,69.32
2019-01-27T14:47:24.685Z,69.49
2019-01-27T14:49:50.988Z,70.61
2019-01-27T14:52:17.292Z,70.78
2019-01-27T14:54:43.604Z,71.36
2019-01-27T14:57:09.912Z,71.36
2019-01-27T14:59:36.220Z,71.04
2019-01-27T15:02:02.550Z,71.76
2019-01-27T15:04:28.881Z,72.17
2019-01-27T15:06:55.189Z,72.49
2019-01-27T15:09:21.508Z,73.07
2019-01-27T15:11:47.823Z,73.72
2019-01-27T15:14:14.130Z,74.48
2019-01-27T15:16:40.745Z,75.12
2019-01-27T15:19:07.053Z,75.73
2019-01-27T15:21:33.361Z,76.28
2019-01-27T15:23:59.671Z,76.73
2019-01-27T15:26:25.986Z,77.14
2019-01-27T15:28:52.284Z,77.14
2019-01-27T15:31:18.591Z,77.34
2019-01-27T15:33:44.900Z,77.46
2019-01-27T15:36:11.208Z,77.42
2019-01-27T15:38:37.534Z,78.07
2019-01-27T15:41:03.846Z,77.98
2019-01-27T15:43:30.148Z,77.91
2019-01-27T15:45:56.490Z,77.70
2019-01-27T15:48:22.795Z,77.81
2019-01-27T15:50:49.103Z,78.12
2019-01-27T15:53:15.415Z,78.37
2019-01-27T15:55:41.721Z,78.30
2019-01-27T15:58:08.039Z,78.56
2019-01-27T16:00:34.348Z,78.73
2019-01-27T16:03:00.732Z,78.70
2019-01-27T16:05:27.003Z,78.90
2019-01-27T16:07:53.310Z,79.29
2019-01-27T16:10:19.623Z,79.33
2019-01-27T16:12:45.928Z,79.77
2019-01-27T16:15:12.230Z,80.19
2019-01-27T16:17:38.559Z,80.30
2019-01-27T16:20:07.325Z,80.72
2019-01-27T16:22:33.905Z,80.78
2019-01-27T16:25:00.217Z,80.80
2019-01-27T16:27:26.876Z,80.82
2019-01-27T16:29:53.183Z,80.83
2019-01-27T16:32:19.486Z,80.75
2019-01-27T16:34:45.790Z,80.53
2019-01-27T16:37:12.094Z,80.49
2019-01-27T16:39:38.407Z,80.43
2019-01-27T16:42:04.711Z,79.90
2019-01-27T16:44:31.021Z,79.63
2019-01-27T16:46:57.323Z,79.48
2019-01-27T16:49:23.634Z,79.73
2019-01-27T16:51:49.940Z,79.48
2019-01-27T16:54:16.251Z,79.47
2019-01-27T16:56:42.552Z,79.55
2019-01-27T16:59:08.863Z,79.50
2019-01-27T17:01:38.079Z,79.29
2019-01-27T17:04:04.391Z,79.17
2019-01-27T17:06:30.700Z,79.27
2019-01-27T17:08:57.047Z,79.27
2019-01-27T17:11:23.441Z,79.46
2019-01-27T17:13:49.758Z,79.54
2019-01-27T17:16:16.072Z,79.64
2019-01-27T17:18:42.381Z,79.75
2019-01-27T17:21:08.693Z,79.74
2019-01-27T17:23:35.002Z,79.76
2019-01-27T17:26:01.316Z,79.99
2019-01-27T17:28:27.616Z,79.90
2019-01-27T17:30:53.940Z,80.20
2019-01-27T17:33:20.242Z,80.27
2019-01-27T17:35:46.577Z,80.28
2019-01-27T17:38:12.858Z,80.29
2019-01-27T17:40:39.163Z,80.32
2019-01-27T17:43:05.469Z,80.55
2019-01-27T17:45:31.785Z,80.52
2019-01-27T17:47:58.098Z,80.55
2019-01-27T17:50:24.406Z,80.41
2019-01-27T17:52:50.718Z,80.69
2019-01-27T17:55:17.026Z,80.99
2019-01-27T17:57:43.344Z,80.59
2019-01-27T18:00:09.658Z,80.47
2019-01-27T18:02:35.965Z,80.67
2019-01-27T18:05:02.306Z,80.85
2019-01-27T18:07:28.591Z,81.00
2019-01-27T18:09:54.934Z,80.93
2019-01-27T18:12:21.210Z,80.84
2019-01-27T18:14:47.522Z,80.84
2019-01-27T18:17:13.848Z,80.87
2019-01-27T18:19:40.145Z,80.87
2019-01-27T18:22:06.463Z,81.26
2019-01-27T18:24:32.767Z,81.47
2019-01-27T18:26:59.087Z,81.83
2019-01-27T18:29:25.389Z,81.70
2019-01-27T18:31:51.703Z,81.89
2019-01-27T18:34:18.004Z,82.16
2019-01-27T18:36:44.315Z,82.51
2019-01-27T18:39:10.617Z,81.82
2019-01-27T18:41:36.929Z,81.89
2019-01-27T18:44:03.243Z,81.54
2019-01-27T18:46:29.576Z,82.25
2019-01-27T18:48:55.867Z,82.05
2019-01-27T18:51:22.238Z,82.11
2019-01-27T18:53:48.526Z,82.61
2019-01-27T18:56:14.831Z,83.35
2019-01-27T18:58:41.137Z,84.28
2019-01-27T19:01:07.473Z,84.24
2019-01-27T19:03:33.816Z,84.60
2019-01-27T19:06:00.120Z,85.12
2019-01-27T19:08:26.430Z,85.19
2019-01-27T19:10:52.749Z,85.28
2019-01-27T19:13:19.052Z,88.59
2019-01-27T19:15:45.733Z,88.75
2019-01-27T19:18:12.035Z,89.54
2019-01-27T19:20:38.345Z,87.30
2019-01-27T19:23:07.612Z,85.34
2019-01-27T19:25:33.923Z,83.15
2019-01-27T19:28:00.228Z,82.84
2019-01-27T19:30:26.540Z,82.87
2019-01-27T19:32:55.852Z,81.37
2019-01-27T19:35:22.158Z,80.89
2019-01-27T19:37:48.482Z,80.32
2019-01-27T19:40:14.797Z,80.21
2019-01-27T19:42:43.565Z,79.66
2019-01-27T19:45:09.884Z,81.26
2019-01-27T19:47:36.192Z,82.66
2019-01-27T19:50:02.531Z,83.55
2019-01-27T19:52:28.839Z,84.28
2019-01-27T19:54:55.150Z,84.34
2019-01-27T19:57:21.464Z,84.95
2019-01-27T19:59:47.776Z,85.23
2019-01-27T20:02:14.101Z,85.41
2019-01-27T20:04:40.405Z,85.60
2019-01-27T20:07:06.838Z,85.57
2019-01-27T20:09:33.152Z,85.84
2019-01-27T20:11:59.476Z,85.98
2019-01-27T20:14:25.782Z,86.13
2019-01-27T20:16:52.128Z,86.32
2019-01-27T20:19:18.446Z,86.27
2019-01-27T20:21:44.754Z,86.65
2019-01-27T20:24:11.070Z,86.80
2019-01-27T20:26:37.378Z,86.95
2019-01-27T20:29:03.690Z,87.11
2019-01-27T20:31:30.012Z,87.31
2019-01-27T20:33:56.417Z,87.71
2019-01-27T20:36:22.818Z,88.02
2019-01-27T20:38:49.134Z,88.24
2019-01-27T20:41:15.515Z,88.42
2019-01-27T20:43:43.874Z,88.48
2019-01-27T20:46:10.187Z,88.66
2019-01-27T20:48:36.488Z,88.78
2019-01-27T20:51:02.805Z,88.84
2019-01-27T20:53:29.192Z,88.96
2019-01-27T20:55:55.518Z,88.92
2019-01-27T20:58:21.871Z,88.82
2019-01-27T21:00:48.191Z,88.90
2019-01-27T21:03:14.502Z,89.04
2019-01-27T21:05:40.807Z,89.20
2019-01-27T21:08:07.114Z,89.41
2019-01-27T21:10:33.423Z,89.37
2019-01-27T21:12:59.742Z,89.56
2019-01-27T21:15:26.053Z,89.85
2019-01-27T21:17:52.357Z,89.93
2019-01-27T21:20:18.671Z,90.13
2019-01-27T21:22:45.014Z,90.23
2019-01-27T21:25:11.326Z,90.33
2019-01-27T21:27:37.642Z,90.29
2019-01-27T21:30:03.959Z,90.48
2019-01-27T21:32:30.270Z,90.07
2019-01-27T21:34:56.590Z,90.27
2019-01-27T21:37:22.901Z,90.62
2019-01-27T21:39:49.221Z,90.60
2019-01-27T21:42:15.523Z,90.38
2019-01-27T21:44:41.841Z,90.57
2019-01-27T21:47:08.287Z,90.65
2019-01-27T21:49:34.638Z,90.59
2019-01-27T21:52:00.994Z,90.59
2019-01-27T21:54:27.301Z,91.00
2019-01-27T21:56:53.658Z,90.98
2019-01-27T21:59:19.993Z,91.12
2019-01-27T22:01:46.415Z,91.22
2019-01-27T22:04:12.756Z,91.43
2019-01-27T22:06:39.116Z,91.09
2019-01-27T22:09:05.453Z,91.26
2019-01-27T22:11:31.765Z,91.48
2019-01-27T22:13:58.143Z,91.89
2019-01-27T22:16:24.825Z,92.13
2019-01-27T22:18:51.213Z,91.99
2019-01-27T22:21:17.979Z,92.23
2019-01-27T22:26:19.638Z,92.06
2019-01-27T22:28:45.949Z,91.90
2019-01-27T22:31:12.329Z,92.26
2019-01-27T22:33:38.641Z,93.06
2019-01-27T22:36:04.974Z,92.47
2019-01-27T22:38:31.353Z,92.27
2019-01-27T22:40:57.880Z,92.21
2019-01-27T22:43:23.996Z,91.93
2019-01-27T22:45:50.342Z,92.19
2019-01-27T22:48:16.737Z,91.73
2019-01-27T22:50:43.049Z,91.64
2019-01-27T22:53:09.362Z,91.92
2019-01-27T22:55:35.667Z,92.02
2019-01-27T22:58:01.978Z,92.03
2019-01-27T23:00:28.355Z,92.19
2019-01-27T23:02:54.732Z,92.25
2019-01-27T23:05:21.039Z,92.57
2019-01-27T23:07:47.349Z,92.45
2019-01-27T23:10:13.662Z,92.55
2019-01-27T23:12:39.972Z,92.47
2019-01-27T23:15:06.272Z,92.91
2019-01-27T23:17:32.576Z,92.73
2019-01-27T23:19:58.884Z,92.56
2019-01-27T23:22:25.194Z,92.43
2019-01-27T23:24:51.507Z,92.44
2019-01-27T23:27:17.816Z,92.41
2019-01-27T23:29:44.119Z,92.47
2019-01-27T23:32:10.429Z,92.52
2019-01-27T23:34:36.767Z,92.11
2019-01-27T23:37:03.077Z,91.82
2019-01-27T23:39:29.949Z,91.89
2019-01-27T23:41:55.703Z,91.63
2019-01-27T23:44:22.009Z,91.59
2019-01-27T23:46:48.321Z,91.53
2019-01-27T23:49:14.633Z,91.56
2019-01-27T23:51:40.955Z,91.62
2019-01-27T23:54:07.254Z,91.87
2019-01-27T23:56:33.561Z,92.16
2019-01-27T23:58:59.864Z,92.32
